Time;durP1;ratioP1;P1;durP2;ratioP2;P2;SDS_P1;SDS_P2;PMS_P1;PMS_P2;Temp;Humidity;BMP_temperature;BMP_pressure;BME280_temperature;BME280_humidity;BME280_pressure;Samples;Min_cycle;Max_cycle;Signal;HPM_P1;HPM_P2
2022/07/26 00:01:05;;;;;;;13.33;10.80;;;;;;;24.53;71.03;98847.72;4996310;28;20174;-83
2022/07/26 00:03:31;;;;;;;14.77;11.00;;;;;;;25.11;70.89;98959.53;4996271;28;20251;-84
2022/07/26 00:05:58;;;;;;;12.27;10.97;;;;;;;25.12;71.26;98962.97;4996381;28;20174;-84
2022/07/26 00:08:24;;;;;;;14.87;10.73;;;;;;;25.12;70.81;98965.56;4996404;28;20168;-84
2022/07/26 00:10:51;;;;;;;14.97;10.90;;;;;;;25.15;70.92;98965.50;4994795;28;20249;-84
2022/07/26 00:13:19;;;;;;;12.73;10.77;;;;;;;24.92;70.74;98921.09;4996348;28;20199;-87
2022/07/26 00:15:45;;;;;;;13.23;10.60;;;;;;;25.13;71.10;98967.28;4995795;28;20171;-87
2022/07/26 00:18:12;;;;;;;14.07;10.67;;;;;;;24.60;70.76;98878.59;4996357;28;20596;-86
2022/07/26 00:20:37;;;;;;;14.50;10.50;;;;;;;25.10;71.04;98969.94;4994369;28;20182;-86
2022/07/26 00:23:03;;;;;;;13.70;11.20;;;;;;;24.72;71.13;98912.88;4996312;28;20187;-88
2022/07/26 00:25:28;;;;;;;14.63;10.97;;;;;;;25.08;70.96;98975.13;4997066;28;20210;-87
2022/07/26 00:27:54;;;;;;;12.77;10.87;;;;;;;24.85;71.68;98959.25;4996271;28;20163;-87
2022/07/26 00:30:20;;;;;;;13.43;11.07;;;;;;;24.55;71.17;98888.22;4995939;28;20195;-86
2022/07/26 00:32:45;;;;;;;12.47;10.47;;;;;;;24.97;71.33;98960.72;4994595;28;20602;-85
2022/07/26 00:35:11;;;;;;;14.97;10.30;;;;;;;24.70;71.76;98936.22;4996595;28;20294;-84
2022/07/26 00:37:37;;;;;;;12.03;10.20;;;;;;;24.77;71.51;98965.44;4996214;28;20170;-85
2022/07/26 00:40:03;;;;;;;13.17;10.07;;;;;;;23.72;71.90;98786.38;4995871;28;20172;-85
2022/07/26 00:42:29;;;;;;;16.30;10.50;;;;;;;24.69;71.70;98962.16;4995818;28;20577;-85
2022/07/26 00:44:55;;;;;;;12.73;9.97;;;;;;;24.78;71.57;98967.16;4995611;28;20170;-85
2022/07/26 00:47:20;;;;;;;13.60;10.13;;;;;;;24.26;72.32;98897.41;4994587;28;20171;-85
2022/07/26 00:49:46;;;;;;;13.13;10.63;;;;;;;24.60;72.85;98960.59;4993552;28;20183;-84
2022/07/26 00:52:12;;;;;;;12.23;10.10;;;;;;;24.67;72.35;98956.16;4995936;28;20698;-85
2022/07/26 00:54:39;;;;;;;14.10;10.70;;;;;;;24.19;72.37;98873.41;4995318;28;20163;-83
2022/07/26 00:57:05;;;;;;;12.50;10.03;;;;;;;24.60;73.25;98958.00;4994172;28;20253;-83
2022/07/26 00:59:31;;;;;;;14.03;10.47;;;;;;;23.86;73.42;98836.06;4994296;28;20207;-82
2022/07/26 01:01:57;;;;;;;13.27;10.40;;;;;;;24.58;73.58;98950.25;4994727;28;20174;-84
2022/07/26 01:04:22;;;;;;;12.83;10.63;;;;;;;24.60;73.32;98955.41;4994998;28;20171;-84
2022/07/26 01:06:48;;;;;;;12.40;9.90;;;;;;;24.63;73.29;98955.34;4995003;28;20174;-84
2022/07/26 01:09:15;;;;;;;15.77;10.60;;;;;;;24.66;73.11;98960.47;4995409;28;20163;-83
2022/07/26 01:11:40;;;;;;;14.77;10.60;;;;;;;24.63;73.01;98950.19;4995194;28;20241;-84
2022/07/26 01:14:06;;;;;;;14.10;10.50;;;;;;;23.51;72.94;98760.06;4995232;28;20164;-84
2022/07/26 01:16:32;;;;;;;14.67;10.40;;;;;;;23.96;73.54;98853.13;4994818;28;20194;-85
2022/07/26 01:18:57;;;;;;;12.23;10.10;;;;;;;24.45;73.17;98945.34;4994813;28;20660;-83
2022/07/26 01:21:28;;;;;;;11.13;9.57;;;;;;;24.15;73.19;98882.09;4994754;28;20213;-83
2022/07/26 01:23:54;;;;;;;12.97;10.13;;;;;;;24.12;73.17;98879.56;4975687;28;20176;-83
2022/07/26 01:26:19;;;;;;;17.03;10.40;;;;;;;24.48;73.22;98940.97;4975456;28;20782;-83
2022/07/26 01:28:48;;;;;;;12.80;10.90;;;;;;;24.11;73.53;98892.53;4977778;28;20644;-83
2022/07/26 01:31:13;;;;;;;12.90;10.43;;;;;;;23.78;73.13;98825.03;4994124;28;20195;-83
2022/07/26 01:33:39;;;;;;;13.60;10.13;;;;;;;24.02;73.31;98868.53;4994608;28;20190;-83
2022/07/26 01:36:05;;;;;;;10.87;9.57;;;;;;;24.35;72.46;98923.97;4994212;28;20231;-83
2022/07/26 01:38:31;;;;;;;11.67;10.13;;;;;;;23.86;72.08;98854.19;4994881;28;20258;-84
2022/07/26 01:40:56;;;;;;;11.97;9.50;;;;;;;24.58;71.25;98942.47;4999217;28;20167;-83
2022/07/26 01:43:22;;;;;;;10.43;9.33;;;;;;;24.64;71.14;98949.25;5003599;28;20163;-84
2022/07/26 01:45:47;;;;;;;12.23;9.63;;;;;;;24.69;70.30;98938.84;4995344;28;20167;-84
2022/07/26 01:48:13;;;;;;;11.53;9.80;;;;;;;24.56;71.61;98938.22;4994595;28;20178;-84
2022/07/26 01:50:38;;;;;;;11.07;9.67;;;;;;;24.20;71.33;98889.78;4994245;28;20202;-84
2022/07/26 01:53:04;;;;;;;12.73;9.87;;;;;;;23.75;71.17;98811.31;4994367;28;20651;-82
2022/07/26 01:55:29;;;;;;;12.50;9.27;;;;;;;23.27;70.62;98725.13;4994434;28;20167;-82
2022/07/26 01:57:54;;;;;;;10.77;9.67;;;;;;;24.29;71.43;98911.16;4995034;28;20163;-83
2022/07/26 02:00:20;;;;;;;14.23;11.87;;;;;;;24.25;71.73;98896.59;4994632;28;20562;-85
2022/07/26 02:02:45;;;;;;;11.33;9.50;;;;;;;24.27;71.52;98906.88;4994577;28;20197;-86
2022/07/26 02:05:11;;;;;;;11.07;9.37;;;;;;;24.38;71.51;98943.75;4995132;28;20170;-84
2022/07/26 02:07:42;;;;;;;13.07;9.77;;;;;;;24.39;71.45;98929.94;4994943;28;20699;-85
2022/07/26 02:10:09;;;;;;;15.67;9.87;;;;;;;24.39;71.47;98940.31;4993268;28;20665;-87
2022/07/26 02:12:35;;;;;;;12.33;9.57;;;;;;;24.40;71.49;98936.81;4996861;28;20615;-86
2022/07/26 02:15:03;;;;;;;11.00;9.10;;;;;;;24.42;71.22;98935.06;4994892;28;20168;-86
2022/07/26 02:17:28;;;;;;;11.37;9.60;;;;;;;24.34;71.26;98930.03;4994186;28;20603;-86
2022/07/26 02:19:54;;;;;;;13.63;9.60;;;;;;;24.15;70.53;98889.00;4993720;28;20183;-86
2022/07/26 02:22:19;;;;;;;11.60;9.40;;;;;;;23.61;70.08;98797.78;4993816;28;20167;-86
2022/07/26 02:24:46;;;;;;;13.47;9.47;;;;;;;24.06;72.50;98887.44;4993490;28;20234;-86
2022/07/26 02:27:11;;;;;;;13.97;9.47;;;;;;;24.31;72.04;98930.06;4992965;28;20179;-85
2022/07/26 02:29:37;;;;;;;11.10;9.30;;;;;;;23.95;73.23;98874.66;4993841;28;20233;-86
2022/07/26 02:32:03;;;;;;;15.37;10.70;;;;;;;22.94;73.04;98710.25;4996175;28;20196;-86
2022/07/26 02:34:28;;;;;;;15.93;12.17;;;;;;;23.83;76.08;98885.25;4993458;28;20246;-86
2022/07/26 02:36:54;;;;;;;16.80;12.40;;;;;;;24.11;78.89;98933.94;4992766;28;20306;-86
2022/07/26 02:39:21;;;;;;;17.40;12.67;;;;;;;23.84;80.74;98928.31;4993706;28;20244;-86
2022/07/26 02:41:47;;;;;;;19.87;14.43;;;;;;;23.80;81.41;98923.22;4993857;28;20160;-86
2022/07/26 02:44:13;;;;;;;18.10;14.40;;;;;;;23.34;83.41;98861.09;4993681;28;20160;-86
2022/07/26 02:46:39;;;;;;;18.40;15.50;;;;;;;23.33;86.90;98867.97;4993411;28;20241;-86
2022/07/26 02:49:04;;;;;;;20.43;16.83;;;;;;;23.52;86.41;98907.31;4993064;28;20178;-85
2022/07/26 02:51:30;;;;;;;24.27;16.93;;;;;;;23.41;88.17;98930.75;4992607;28;20215;-85
2022/07/26 02:53:55;;;;;;;27.17;15.87;;;;;;;23.24;88.85;98900.88;4994116;28;20205;-86
2022/07/26 02:56:21;;;;;;;21.10;16.80;;;;;;;22.33;89.52;98755.03;4992664;28;20207;-86
2022/07/26 02:58:46;;;;;;;25.40;18.03;;;;;;;23.30;91.47;98927.44;4993285;28;20167;-84
2022/07/26 03:01:12;;;;;;;26.03;19.97;;;;;;;23.13;96.63;98913.09;4993992;28;20206;-84
2022/07/26 03:03:37;;;;;;;23.77;17.63;;;;;;;23.35;95.86;98929.94;4993633;28;20206;-85
2022/07/26 03:06:03;;;;;;;26.30;19.10;;;;;;;23.04;96.04;98884.81;4992653;28;20171;-85
2022/07/26 03:08:28;;;;;;;25.50;17.40;;;;;;;23.19;94.65;98911.25;4995493;28;20770;-84
2022/07/26 03:10:54;;;;;;;23.37;17.47;;;;;;;22.89;94.22;98847.13;4995352;28;20667;-83
2022/07/26 03:13:19;;;;;;;24.97;17.50;;;;;;;23.35;95.34;98929.94;4993361;28;20186;-83
2022/07/26 03:15:45;;;;;;;21.40;17.30;;;;;;;23.04;100.00;98908.91;4993340;28;20194;-85
2022/07/26 03:18:10;;;;;;;29.37;18.00;;;;;;;22.94;100.00;98901.31;4992231;28;20183;-82
2022/07/26 03:20:36;;;;;;;23.70;18.17;;;;;;;23.07;100.00;98932.09;4992437;28;20607;-85
2022/07/26 03:23:01;;;;;;;23.60;19.50;;;;;;;23.00;100.00;98929.59;4994314;28;20164;-85
2022/07/26 03:25:26;;;;;;;28.33;19.13;;;;;;;23.03;100.00;98945.06;4991046;28;20190;-85
2022/07/26 03:27:58;;;;;;;24.37;18.63;;;;;;;21.69;100.00;98745.47;4992979;28;20553;-83
2022/07/26 03:30:23;;;;;;;26.67;18.33;;;;;;;22.88;100.00;98938.38;4993077;28;20641;-83
2022/07/26 03:32:49;;;;;;;24.00;18.90;;;;;;;21.90;100.00;98772.75;4992624;28;20178;-86
2022/07/26 03:35:15;;;;;;;25.87;18.77;;;;;;;21.96;100.00;98780.41;4986678;28;20715;-86
2022/07/26 03:37:41;;;;;;;26.37;18.63;;;;;;;22.91;100.00;98958.97;4973000;28;20179;-85
2022/07/26 03:40:07;;;;;;;25.77;18.30;;;;;;;22.81;100.00;98958.25;4972895;28;20243;-85
2022/07/26 03:42:33;;;;;;;23.17;17.87;;;;;;;22.89;100.00;98960.72;4978579;28;20615;-84
2022/07/26 03:44:59;;;;;;;23.00;18.77;;;;;;;22.42;100.00;98862.38;4992479;28;20168;-86
2022/07/26 03:47:24;;;;;;;24.97;18.40;;;;;;;22.24;100.00;98886.66;4992542;28;20602;-86
2022/07/26 03:49:50;;;;;;;22.57;17.77;;;;;;;22.06;100.00;98853.31;4992205;28;20187;-87
2022/07/26 03:52:15;;;;;;;23.83;18.30;;;;;;;22.49;100.00;98962.06;4989259;28;20180;-85
2022/07/26 03:54:40;;;;;;;24.03;17.77;;;;;;;22.53;100.00;98958.53;4972769;28;20326;-85
2022/07/26 03:57:06;;;;;;;23.17;17.73;;;;;;;22.17;100.00;98929.69;4973275;28;20243;-85
2022/07/26 03:59:31;;;;;;;23.17;18.00;;;;;;;22.55;100.00;98964.56;4971709;28;20183;-89
2022/07/26 04:01:57;;;;;;;24.07;18.53;;;;;;;22.04;100.00;98830.16;4976977;28;20199;-87
2022/07/26 04:04:22;;;;;;;24.03;18.20;;;;;;;22.50;100.00;98858.81;5013169;28;20206;-89
2022/07/26 04:06:47;;;;;;;23.93;18.17;;;;;;;21.90;100.00;98797.66;5007942;28;20190;-91
2022/07/26 04:09:14;;;;;;;24.67;19.13;;;;;;;22.56;100.00;98919.81;4979356;28;20207;-90
2022/07/26 04:11:39;;;;;;;27.47;20.27;;;;;;;22.71;100.00;98912.78;4993421;28;20250;-86
2022/07/26 04:14:05;;;;;;;26.83;18.60;;;;;;;22.01;100.00;98775.19;4976875;28;20172;-87
2022/07/26 04:16:31;;;;;;;24.70;19.77;;;;;;;23.26;100.00;98953.34;4975483;28;20199;-87
2022/07/26 04:18:57;;;;;;;24.10;19.53;;;;;;;22.92;100.00;98881.53;4974683;28;20246;-85
2022/07/26 04:21:22;;;;;;;24.90;18.30;;;;;;;22.73;98.66;98831.03;4973472;28;20171;-87
2022/07/26 04:23:48;;;;;;;25.47;19.17;;;;;;;22.80;97.43;98814.56;4987907;28;20175;-86
2022/07/26 04:26:13;;;;;;;22.73;18.50;;;;;;;23.70;95.91;98944.94;4992962;28;20172;-87
2022/07/26 04:28:40;;;;;;;25.73;18.77;;;;;;;23.37;93.89;98866.22;4992851;28;20186;-87
2022/07/26 04:31:06;;;;;;;25.83;18.70;;;;;;;23.96;92.98;98963.47;4986809;28;20220;-87
2022/07/26 04:33:34;;;;;;;23.47;18.90;;;;;;;23.97;91.27;98942.75;4974895;28;20243;-87
2022/07/26 04:36:01;;;;;;;24.37;19.03;;;;;;;23.79;93.24;98922.38;4976306;28;20230;-87
2022/07/26 04:38:26;;;;;;;24.30;16.90;;;;;;;23.48;90.98;98866.91;4977142;28;20184;-87
2022/07/26 04:40:52;;;;;;;22.50;17.80;;;;;;;24.17;92.84;98963.13;4979607;28;20175;-88
2022/07/26 04:43:18;;;;;;;22.93;18.00;;;;;;;24.21;89.92;98961.31;4996092;28;20623;-88
2022/07/26 04:45:44;;;;;;;19.57;17.00;;;;;;;23.55;89.48;98844.38;4975615;28;20612;-87
2022/07/26 04:48:10;;;;;;;21.93;15.90;;;;;;;24.19;86.93;98919.13;4995618;28;20229;-87
2022/07/26 04:50:35;;;;;;;22.93;16.80;;;;;;;24.05;86.04;98903.81;4991825;28;20596;-87
2022/07/26 04:53:01;;;;;;;23.83;18.17;;;;;;;23.66;88.20;98852.81;4985558;28;20645;-87
2022/07/26 04:55:27;;;;;;;23.93;17.90;;;;;;;23.70;93.91;98907.03;4965834;28;20179;-86
2022/07/26 04:57:52;;;;;;;24.47;17.80;;;;;;;23.02;94.54;98822.00;4982835;28;20733;-87
2022/07/26 05:00:23;;;;;;;22.67;17.37;;;;;;;23.91;96.01;98965.28;4986280;28;20194;-87
2022/07/26 05:02:50;;;;;;;22.97;18.30;;;;;;;24.28;87.10;98961.19;4993844;28;20219;-88
2022/07/26 05:05:16;;;;;;;24.37;18.23;;;;;;;23.89;83.19;98884.28;4992986;28;20175;-87
2022/07/26 05:07:47;;;;;;;24.63;17.50;;;;;;;24.65;81.20;98958.75;4996245;28;20195;-84
2022/07/26 05:10:15;;;;;;;25.97;18.30;;;;;;;24.68;80.53;98927.63;4996192;28;20215;-84
2022/07/26 05:12:40;;;;;;;28.13;18.47;;;;;;;24.76;81.41;98955.94;4998296;28;20193;-85
2022/07/26 05:15:07;;;;;;;25.33;18.07;;;;;;;24.67;80.20;98936.25;5000208;28;20286;-85
2022/07/26 05:17:33;;;;;;;18.00;14.80;;;;;;;24.93;75.74;98938.34;5000762;28;20187;-84
2022/07/26 05:19:58;;;;;;;19.83;15.43;;;;;;;25.14;74.25;98935.28;5004724;28;20217;-86
2022/07/26 05:22:24;;;;;;;20.87;14.90;;;;;;;25.17;73.16;98949.03;5002260;28;20191;-84
2022/07/26 05:24:49;;;;;;;23.33;16.13;;;;;;;25.03;72.74;98883.72;5002954;28;20191;-86
2022/07/26 05:27:14;;;;;;;24.57;16.60;;;;;;;25.58;72.18;98952.44;5005268;28;20179;-85
2022/07/26 05:29:40;;;;;;;21.93;16.57;;;;;;;25.63;70.94;98911.69;5001684;28;20187;-83
2022/07/26 05:32:05;;;;;;;24.07;17.20;;;;;;;25.59;71.98;98954.16;5003142;28;20215;-83
2022/07/26 05:34:31;;;;;;;23.43;17.30;;;;;;;25.05;74.98;98918.22;4998513;28;20194;-82
2022/07/26 05:36:56;;;;;;;19.43;15.73;;;;;;;24.15;71.94;98723.44;4991829;28;20247;-83
2022/07/26 05:39:22;;;;;;;22.50;16.63;;;;;;;25.68;69.65;98926.25;4988883;28;20196;-83
2022/07/26 05:41:47;;;;;;;23.03;16.90;;;;;;;25.94;67.99;98910.03;4987594;28;20196;-82
2022/07/26 05:44:12;;;;;;;23.00;16.20;;;;;;;26.06;67.93;98952.97;4989372;28;20179;-83
2022/07/26 05:46:38;;;;;;;20.33;16.90;;;;;;;25.95;67.42;98880.63;4983301;28;20285;-82
2022/07/26 05:49:04;;;;;;;23.20;17.87;;;;;;;26.29;66.66;98909.13;4994931;28;20560;-83
2022/07/26 05:51:30;;;;;;;20.67;16.70;;;;;;;26.64;65.90;98949.72;4986238;28;20302;-82
2022/07/26 05:53:55;;;;;;;25.73;20.60;;;;;;;26.50;65.41;98957.03;4981327;28;20362;-82
2022/07/26 05:56:32;;;;;;;19.20;16.85;;;;;;;25.96;66.60;98902.22;4985313;28;20184;-84
2022/07/26 05:58:57;;;;;;;21.57;17.13;;;;;;;25.85;67.49;98905.06;4990801;28;20194;-82
2022/07/26 06:01:23;;;;;;;20.53;16.70;;;;;;;26.07;65.15;98900.22;4992185;28;20187;-82
2022/07/26 06:03:48;;;;;;;20.63;17.13;;;;;;;26.23;64.72;98902.34;4998250;28;20194;-82
2022/07/26 06:06:14;;;;;;;21.98;17.15;;;;;;;26.78;64.19;98939.81;4997449;28;20223;-82
2022/07/26 06:08:39;;;;;;;22.20;17.85;;;;;;;26.63;63.36;98872.69;4995929;28;20184;-83
2022/07/26 06:11:05;;;;;;;20.63;17.30;;;;;;;26.85;63.00;98941.31;4997398;28;20692;-82
2022/07/26 06:13:30;;;;;;;23.30;17.55;;;;;;;25.77;65.29;98822.28;4998771;28;20199;-83
2022/07/26 06:15:56;;;;;;;22.67;18.02;;;;;;;26.78;64.81;98934.63;4994707;28;20199;-82
2022/07/26 06:18:21;;;;;;;22.42;18.17;;;;;;;26.17;67.12;98938.88;4978060;28;20624;-82
2022/07/26 06:20:47;;;;;;;22.13;17.97;;;;;;;26.52;66.13;98917.13;4989132;28;20183;-82
2022/07/26 06:23:13;;;;;;;23.88;18.33;;;;;;;26.97;63.55;98915.00;4995596;28;20278;-82
2022/07/26 06:25:39;;;;;;;22.10;19.27;;;;;;;27.12;62.79;98911.06;4971105;28;20225;-81
2022/07/26 06:28:07;;;;;;;22.42;19.27;;;;;;;27.23;62.51;98894.22;4991516;28;20180;-84
2022/07/26 06:30:33;;;;;;;22.35;18.75;;;;;;;27.44;62.45;98926.56;5002726;28;20226;-82
2022/07/26 06:32:58;;;;;;;21.00;18.38;;;;;;;27.73;60.97;98920.38;4990975;28;20197;-83
2022/07/26 06:35:27;;;;;;;24.63;18.98;;;;;;;27.83;61.11;98921.78;4990422;28;20244;-82
2022/07/26 06:37:53;;;;;;;22.02;18.60;;;;;;;27.99;59.59;98916.00;4967938;28;20215;-83
2022/07/26 06:40:18;;;;;;;22.35;18.42;;;;;;;27.83;60.89;98920.03;4989009;28;20186;-83
2022/07/26 06:42:44;;;;;;;21.67;18.33;;;;;;;28.02;60.47;98917.63;4992927;28;20695;-82
2022/07/26 06:45:10;;;;;;;21.17;17.88;;;;;;;27.93;59.54;98897.16;4979440;28;20363;-84
2022/07/26 06:47:35;;;;;;;21.08;17.60;;;;;;;28.12;58.94;98880.03;4990117;28;20238;-82
2022/07/26 06:50:01;;;;;;;20.10;17.70;;;;;;;28.12;58.00;98863.56;4990199;28;20192;-83
2022/07/26 06:52:27;;;;;;;21.77;17.50;;;;;;;28.37;57.83;98906.03;4991138;28;20196;-83
2022/07/26 06:54:52;;;;;;;24.65;17.92;;;;;;;28.33;58.04;98891.41;4990645;28;20178;-84
2022/07/26 06:57:18;;;;;;;22.73;18.17;;;;;;;28.22;57.85;98846.69;4989062;28;20179;-83
2022/07/26 06:59:43;;;;;;;25.58;18.05;;;;;;;28.66;57.02;98904.09;4992303;28;20310;-83
2022/07/26 07:02:09;;;;;;;21.45;17.95;;;;;;;28.70;57.00;98893.56;4991165;28;20991;-83
2022/07/26 07:04:34;;;;;;;24.45;18.65;;;;;;;28.54;56.46;98899.28;4989579;28;20191;-83
2022/07/26 07:07:04;;;;;;;22.17;17.83;;;;;;;28.82;56.49;98899.16;4989858;28;20205;-83
2022/07/26 07:09:31;;;;;;;24.50;17.73;;;;;;;28.92;55.08;98845.78;4990300;28;20190;-82
2022/07/26 07:11:57;;;;;;;22.40;18.33;;;;;;;28.76;55.01;98867.28;4990266;28;20216;-84
2022/07/26 07:14:25;;;;;;;20.30;17.95;;;;;;;29.40;53.54;98897.75;4989590;28;20238;-83
2022/07/26 07:16:50;;;;;;;20.27;18.15;;;;;;;29.12;53.25;98816.28;4973035;28;20190;-84
2022/07/26 07:19:15;;;;;;;24.75;18.30;;;;;;;29.23;54.00;98894.97;4990035;28;20301;-85
2022/07/26 07:21:44;;;;;;;22.55;18.60;;;;;;;29.20;52.98;98869.81;4989811;28;20192;-85
2022/07/26 07:24:10;;;;;;;24.45;18.60;;;;;;;29.44;53.39;98862.81;4989581;28;20289;-82
2022/07/26 07:26:35;;;;;;;21.30;17.50;;;;;;;29.32;53.81;98837.22;4977571;28;20265;-82
2022/07/26 07:29:01;;;;;;;24.83;18.75;;;;;;;28.60;55.45;98886.03;4971455;28;20289;-84
2022/07/26 07:31:27;;;;;;;20.08;17.90;;;;;;;28.88;55.39;98885.88;4971460;28;20207;-83
2022/07/26 07:33:52;;;;;;;23.35;18.92;;;;;;;29.49;54.21;98905.22;4984497;28;20918;-83
2022/07/26 07:36:18;;;;;;;21.83;18.67;;;;;;;29.63;53.55;98866.34;4986490;28;20232;-83
2022/07/26 07:38:44;;;;;;;22.38;18.30;;;;;;;30.01;52.08;98871.72;4991356;28;20241;-84
2022/07/26 07:41:10;;;;;;;23.48;18.55;;;;;;;30.17;50.43;98906.72;4992841;28;20677;-83
2022/07/26 07:43:35;;;;;;;24.25;19.48;;;;;;;29.65;52.06;98859.31;4990090;28;20196;-84
2022/07/26 07:46:01;;;;;;;23.60;19.38;;;;;;;29.93;51.93;98897.31;4979328;28;20253;-83
2022/07/26 07:48:26;;;;;;;20.75;18.58;;;;;;;30.26;50.24;98893.25;4991126;28;20314;-83
2022/07/26 07:50:52;;;;;;;23.65;18.67;;;;;;;30.49;50.25;98889.66;4989516;28;20246;-84
2022/07/26 07:53:17;;;;;;;23.17;18.73;;;;;;;30.26;49.58;98873.22;4989408;28;20671;-83
2022/07/26 07:55:50;;;;;;;21.05;18.80;;;;;;;30.63;49.66;98895.94;4989746;28;20183;-84
2022/07/26 07:58:16;;;;;;;23.13;18.60;;;;;;;30.83;47.70;98898.50;4990283;28;20197;-82
2022/07/26 08:00:41;;;;;;;22.95;19.33;;;;;;;30.99;48.52;98895.22;4989258;28;20204;-83
2022/07/26 08:03:07;;;;;;;22.75;19.40;;;;;;;31.18;47.15;98896.03;4984686;28;20587;-83
2022/07/26 08:05:33;;;;;;;21.38;18.67;;;;;;;30.44;46.56;98727.84;4974618;28;20190;-83
2022/07/26 08:07:58;;;;;;;22.27;19.75;;;;;;;31.16;46.67;98837.69;4992668;28;20329;-84
2022/07/26 08:10:24;;;;;;;21.17;18.33;;;;;;;31.30;44.71;98799.47;4994406;28;20224;-83
2022/07/26 08:12:49;;;;;;;20.80;18.50;;;;;;;30.58;45.16;98694.06;4991761;28;20217;-83
2022/07/26 08:15:15;;;;;;;21.13;18.60;;;;;;;29.94;46.91;98679.75;4992933;28;20188;-84
2022/07/26 08:17:43;;;;;;;22.42;19.13;;;;;;;31.53;45.70;98859.38;4994437;28;20709;-84
2022/07/26 08:20:09;;;;;;;20.95;18.40;;;;;;;31.70;45.59;98871.63;4994287;28;20194;-84
2022/07/26 08:22:34;;;;;;;20.80;18.60;;;;;;;31.83;44.56;98849.16;4993253;28;20184;-85
2022/07/26 08:25:00;;;;;;;21.88;18.58;;;;;;;31.23;44.48;98719.63;4994157;28;20190;-83
2022/07/26 08:27:33;;;;;;;21.00;18.52;;;;;;;32.26;43.44;98875.75;4992886;28;20189;-85
2022/07/26 08:29:59;;;;;;;22.67;19.80;;;;;;;31.75;44.88;98842.63;4989508;28;20225;-87
2022/07/26 08:32:28;;;;;;;20.77;18.60;;;;;;;32.04;44.22;98842.81;4974979;28;20187;-85
2022/07/26 08:34:53;;;;;;;22.98;18.85;;;;;;;32.22;43.88;98859.38;4974787;28;20182;-84
2022/07/26 08:37:18;;;;;;;22.33;17.98;;;;;;;31.81;42.99;98735.78;4988783;28;20344;-85
2022/07/26 08:39:46;;;;;;;23.27;18.80;;;;;;;31.89;43.60;98806.91;4994076;28;20190;-84
2022/07/26 08:42:16;;;;;;;20.48;18.27;;;;;;;32.02;43.55;98778.34;4993581;28;20201;-85
2022/07/26 08:44:43;;;;;;;20.38;18.15;;;;;;;32.84;42.87;98853.38;4993053;28;20193;-85
2022/07/26 08:47:11;;;;;;;22.08;18.23;;;;;;;33.00;42.24;98850.72;4982188;28;20644;-84
2022/07/26 08:49:37;;;;;;;19.83;17.63;;;;;;;32.96;42.21;98857.94;4997176;28;20183;-87
2022/07/26 08:52:09;;;;;;;19.67;17.48;;;;;;;32.36;42.39;98814.09;5006317;28;20210;-84
2022/07/26 08:54:35;;;;;;;23.05;18.60;;;;;;;31.52;41.75;98616.06;5002340;28;20994;-85
2022/07/26 08:57:07;;;;;;;21.30;17.92;;;;;;;33.20;41.84;98856.59;4993992;28;20187;-85
2022/07/26 08:59:32;;;;;;;19.50;17.40;;;;;;;33.22;41.25;98835.50;4990365;28;20191;-87
2022/07/26 09:02:00;;;;;;;22.92;18.05;;;;;;;33.21;40.99;98846.94;4976478;28;20293;-87
2022/07/26 09:04:34;;;;;;;20.27;18.15;;;;;;;32.47;41.14;98725.22;4978816;28;20886;-84
2022/07/26 09:07:08;;;;;;;24.90;18.33;;;;;;;33.54;41.49;98838.91;4992609;28;20186;-85
2022/07/26 09:10:02;;;;;;;26.35;18.55;;;;;;;33.49;41.06;98846.16;5007622;28;20266;-84
2022/07/26 09:12:29;;;;;;;23.92;19.13;;;;;;;32.94;41.57;98775.00;4964122;29;20193;-88
2022/07/26 09:15:02;;;;;;;22.83;19.27;;;;;;;32.91;41.20;98739.28;4958797;29;20228;-85
2022/07/26 09:17:39;;;;;;;21.63;18.40;;;;;;;33.71;40.65;98830.88;4955338;29;20200;-86
2022/07/26 09:20:30;;;;;;;21.95;18.95;;;;;;;33.75;41.00;98832.41;4955825;29;20184;-86
2022/07/26 09:23:02;;;;;;;22.15;18.77;;;;;;;33.83;40.74;98827.53;4923807;29;20201;-85
2022/07/26 09:25:33;;;;;;;20.75;18.55;;;;;;;31.81;40.79;98518.44;4918328;29;20310;-87
2022/07/26 09:28:00;;;;;;;21.95;18.25;;;;;;;31.21;40.18;98370.94;4915688;29;20804;-86
2022/07/26 09:30:31;;;;;;;21.02;18.38;;;;;;;32.77;40.21;98647.50;4918349;29;20226;-88
2022/07/26 09:33:08;;;;;;;22.15;18.45;;;;;;;33.39;40.48;98745.28;4918667;29;20214;-91
2022/07/26 09:35:37;;;;;;;21.50;19.27;;;;;;;32.68;40.71;98642.78;4908130;29;20288;-90
2022/07/26 09:38:15;;;;;;;22.30;19.65;;;;;;;34.01;40.43;98821.16;4913398;29;20197;-88
2022/07/26 09:40:43;;;;;;;21.80;19.60;;;;;;;30.79;40.10;98256.50;4915909;29;20197;-90
2022/07/26 09:43:18;;;;;;;22.45;20.05;;;;;;;34.36;40.35;98814.59;4915472;29;20194;-85
2022/07/26 09:46:02;;;;;;;23.73;20.10;;;;;;;32.60;41.03;98647.63;4905580;29;20625;-84
2022/07/26 09:48:30;;;;;;;23.17;19.88;;;;;;;30.52;39.78;98252.81;4908495;29;20860;-84
2022/07/26 09:50:55;;;;;;;23.25;19.77;;;;;;;32.70;40.00;98494.06;4930283;29;20204;-86
2022/07/26 09:53:21;;;;;;;23.65;19.40;;;;;;;34.07;41.11;98797.19;4930383;29;20201;-87
2022/07/26 09:55:47;;;;;;;21.75;19.45;;;;;;;34.23;40.17;98800.53;4931057;28;20196;-85
2022/07/26 09:58:17;;;;;;;19.33;17.40;;;;;;;33.14;40.38;98633.91;4952528;29;20200;-87
2022/07/26 10:00:43;;;;;;;19.80;17.45;;;;;;;32.65;39.55;98541.53;4967315;28;20706;-86
2022/07/26 10:03:13;;;;;;;18.35;16.33;;;;;;;32.39;40.02;98494.16;4992573;28;20293;-89
2022/07/26 10:05:39;;;;;;;23.20;17.33;;;;;;;34.24;39.44;98798.75;4995824;28;20520;-86
2022/07/26 10:08:07;;;;;;;18.08;16.27;;;;;;;32.24;39.40;98488.06;4996273;28;20180;-86
2022/07/26 10:10:50;;;;;;;18.58;16.05;;;;;;;33.69;40.92;98806.50;4998162;28;20272;-85
2022/07/26 10:13:21;;;;;;;19.45;17.40;;;;;;;31.61;40.82;98455.09;5004387;28;20170;-87
2022/07/26 10:15:49;;;;;;;19.00;16.88;;;;;;;32.41;40.22;98484.47;5007161;28;20686;-86
2022/07/26 10:18:37;;;;;;;18.88;16.83;;;;;;;34.17;39.63;98776.44;4998697;28;20194;-85
2022/07/26 10:21:14;;;;;;;19.73;16.90;;;;;;;34.10;39.95;98781.22;4997912;28;20603;-85
2022/07/26 10:23:41;;;;;;;17.40;15.55;;;;;;;34.12;39.71;98781.97;4995320;28;20182;-86
2022/07/26 10:26:32;;;;;;;18.80;16.60;;;;;;;34.13;39.71;98762.63;4995519;28;20183;-84
2022/07/26 10:29:15;;;;;;;16.95;15.25;;;;;;;34.13;39.68;98767.03;4973890;28;20266;-85
2022/07/26 10:31:59;;;;;;;19.63;17.60;;;;;;;34.29;39.27;98759.88;4971575;28;20291;-85
2022/07/26 10:34:29;;;;;;;18.23;16.42;;;;;;;34.04;38.63;98757.91;4973134;28;20195;-85
2022/07/26 10:37:00;;;;;;;18.95;16.42;;;;;;;34.39;38.99;98761.00;4973228;28;20226;-85
2022/07/26 10:39:25;;;;;;;19.20;15.80;;;;;;;34.25;38.56;98754.00;4972680;28;20207;-85
2022/07/26 10:42:00;;;;;;;17.10;15.32;;;;;;;32.51;38.10;98427.94;4987113;28;20215;-86
2022/07/26 10:44:34;;;;;;;17.50;15.63;;;;;;;32.99;38.95;98531.66;4972976;28;20569;-86
2022/07/26 10:47:05;;;;;;;16.83;15.23;;;;;;;34.58;38.58;98750.19;4966282;28;20223;-87
2022/07/26 10:49:41;;;;;;;17.02;15.32;;;;;;;34.78;36.38;98749.72;4973122;28;20207;-85
2022/07/26 10:52:17;;;;;;;16.17;14.52;;;;;;;34.56;37.61;98742.34;4972911;28;20294;-87
2022/07/26 10:55:04;;;;;;;14.50;13.00;;;;;;;34.69;35.61;98740.66;4974512;28;20274;-87
2022/07/26 10:57:36;;;;;;;14.32;12.93;;;;;;;34.45;35.50;98708.00;4972835;28;20176;-85
2022/07/26 11:00:08;;;;;;;15.13;13.73;;;;;;;33.54;35.46;98492.34;4972393;28;20188;-85
2022/07/26 11:02:34;;;;;;;15.40;13.88;;;;;;;35.15;34.72;98732.41;4971856;28;20288;-85
2022/07/26 11:05:15;;;;;;;14.38;13.07;;;;;;;35.14;34.92;98718.38;4973087;28;20865;-86
2022/07/26 11:07:57;;;;;;;15.18;12.80;;;;;;;34.47;34.40;98586.97;4981316;28;20187;-87
2022/07/26 11:10:37;;;;;;;14.73;13.32;;;;;;;35.32;33.93;98711.03;4993089;28;20230;-89
2022/07/26 11:13:11;;;;;;;15.18;13.57;;;;;;;34.74;36.24;98700.91;5004844;28;20222;-87
2022/07/26 11:15:39;;;;;;;16.33;13.95;;;;;;;33.62;37.08;98610.88;5012258;28;20253;-88
2022/07/26 11:18:10;;;;;;;17.05;14.18;;;;;;;33.88;37.21;98701.16;5001632;28;20188;-86